sensor_id;sensor_type;location;lat;lon;timestamp;temperature;humidity
14097;DHT22;7125;48.106;11.544;2022-12-18T00:02:20;-3.60;99.90
14097;DHT22;7125;48.106;11.544;2022-12-18T00:04:47;-3.60;99.90
14097;DHT22;7125;48.106;11.544;2022-12-18T00:07:14;-3.50;99.90
14097;DHT22;7125;48.106;11.544;2022-12-18T00:09:41;-3.60;99.90
14097;DHT22;7125;48.106;11.544;2022-12-18T00:12:08;-3.60;99.90
14097;DHT22;7125;48.106;11.544;2022-12-18T00:14:34;-3.60;99.90
14097;DHT22;7125;48.106;11.544;2022-12-18T00:17:03;-3.60;99.90
14097;DHT22;7125;48.106;11.544;2022-12-18T00:19:30;-3.60;99.90
14097;DHT22;7125;48.106;11.544;2022-12-18T00:21:58;-3.70;99.90
14097;DHT22;7125;48.106;11.544;2022-12-18T00:24:24;-3.70;99.90
14097;DHT22;7125;48.106;11.544;2022-12-18T00:26:51;-3.60;99.90
14097;DHT22;7125;48.106;11.544;2022-12-18T00:29:18;-3.60;99.90
14097;DHT22;7125;48.106;11.544;2022-12-18T00:31:45;-3.60;99.90
14097;DHT22;7125;48.106;11.544;2022-12-18T00:34:13;-3.60;99.90
14097;DHT22;7125;48.106;11.544;2022-12-18T00:36:41;-3.60;99.90
14097;DHT22;7125;48.106;11.544;2022-12-18T00:39:10;-3.60;99.90
14097;DHT22;7125;48.106;11.544;2022-12-18T00:41:37;-3.60;99.90
14097;DHT22;7125;48.106;11.544;2022-12-18T00:44:21;-3.60;99.90
14097;DHT22;7125;48.106;11.544;2022-12-18T00:46:50;-3.70;99.90
14097;DHT22;7125;48.106;11.544;2022-12-18T00:49:19;-3.60;99.90
14097;DHT22;7125;48.106;11.544;2022-12-18T00:51:46;-3.60;99.90
14097;DHT22;7125;48.106;11.544;2022-12-18T00:54:13;-3.60;99.90
14097;DHT22;7125;48.106;11.544;2022-12-18T00:56:40;-3.60;99.90
14097;DHT22;7125;48.106;11.544;2022-12-18T00:59:07;-3.60;99.90
14097;DHT22;7125;48.106;11.544;2022-12-18T01:01:34;-3.60;99.90
14097;DHT22;7125;48.106;11.544;2022-12-18T01:04:04;-3.60;99.90
14097;DHT22;7125;48.106;11.544;2022-12-18T01:06:32;-3.60;99.90
14097;DHT22;7125;48.106;11.544;2022-12-18T01:08:59;-3.70;99.90
14097;DHT22;7125;48.106;11.544;2022-12-18T01:11:26;-3.70;99.90
14097;DHT22;7125;48.106;11.544;2022-12-18T01:13:53;-3.70;99.90
14097;DHT22;7125;48.106;11.544;2022-12-18T01:16:22;-3.70;99.90
14097;DHT22;7125;48.106;11.544;2022-12-18T01:18:51;-3.70;99.90
14097;DHT22;7125;48.106;11.544;2022-12-18T01:21:19;-3.70;99.90
14097;DHT22;7125;48.106;11.544;2022-12-18T01:23:51;-3.70;99.90
14097;DHT22;7125;48.106;11.544;2022-12-18T01:26:18;-3.70;99.90
14097;DHT22;7125;48.106;11.544;2022-12-18T01:28:45;-3.70;99.90
14097;DHT22;7125;48.106;11.544;2022-12-18T01:31:18;-3.70;99.90
14097;DHT22;7125;48.106;11.544;2022-12-18T01:33:46;-3.60;99.90
14097;DHT22;7125;48.106;11.544;2022-12-18T01:36:17;-3.70;99.90
14097;DHT22;7125;48.106;11.544;2022-12-18T01:38:47;-3.70;99.90
14097;DHT22;7125;48.106;11.544;2022-12-18T01:41:15;-3.70;99.90
14097;DHT22;7125;48.106;11.544;2022-12-18T01:43:49;-3.70;99.90
14097;DHT22;7125;48.106;11.544;2022-12-18T01:46:19;-3.70;99.90
14097;DHT22;7125;48.106;11.544;2022-12-18T01:48:48;-3.80;99.90
14097;DHT22;7125;48.106;11.544;2022-12-18T01:51:16;-3.80;99.90
14097;DHT22;7125;48.106;11.544;2022-12-18T01:53:46;-3.80;99.90
14097;DHT22;7125;48.106;11.544;2022-12-18T01:56:15;-3.80;99.90
14097;DHT22;7125;48.106;11.544;2022-12-18T01:58:48;-3.80;99.90
14097;DHT22;7125;48.106;11.544;2022-12-18T02:01:16;-3.80;99.90
14097;DHT22;7125;48.106;11.544;2022-12-18T02:03:44;-3.70;99.90
14097;DHT22;7125;48.106;11.544;2022-12-18T02:06:15;-3.80;99.90
14097;DHT22;7125;48.106;11.544;2022-12-18T02:08:58;-3.80;99.90
14097;DHT22;7125;48.106;11.544;2022-12-18T02:11:39;-3.80;99.90
14097;DHT22;7125;48.106;11.544;2022-12-18T02:14:17;-3.80;99.90
14097;DHT22;7125;48.106;11.544;2022-12-18T02:16:49;-3.80;99.90
14097;DHT22;7125;48.106;11.544;2022-12-18T02:19:40;-3.80;99.90
14097;DHT22;7125;48.106;11.544;2022-12-18T02:22:20;-3.80;99.90
14097;DHT22;7125;48.106;11.544;2022-12-18T02:25:02;-3.80;99.90
14097;DHT22;7125;48.106;11.544;2022-12-18T02:27:34;-3.80;99.90
14097;DHT22;7125;48.106;11.544;2022-12-18T02:30:05;-3.80;99.90
14097;DHT22;7125;48.106;11.544;2022-12-18T02:32:35;-3.80;99.90
14097;DHT22;7125;48.106;11.544;2022-12-18T02:35:05;-3.80;99.90
14097;DHT22;7125;48.106;11.544;2022-12-18T02:37:34;-3.80;99.90
14097;DHT22;7125;48.106;11.544;2022-12-18T02:40:06;-3.80;99.90
14097;DHT22;7125;48.106;11.544;2022-12-18T02:42:37;-3.90;99.90
14097;DHT22;7125;48.106;11.544;2022-12-18T02:45:07;-3.90;99.90
14097;DHT22;7125;48.106;11.544;2022-12-18T02:47:38;-3.80;99.90
14097;DHT22;7125;48.106;11.544;2022-12-18T02:50:12;-3.90;99.90
14097;DHT22;7125;48.106;11.544;2022-12-18T02:52:49;-3.90;99.90
14097;DHT22;7125;48.106;11.544;2022-12-18T02:55:29;-3.90;99.90
14097;DHT22;7125;48.106;11.544;2022-12-18T02:58:12;-3.90;99.90
14097;DHT22;7125;48.106;11.544;2022-12-18T03:00:43;-3.90;99.90
14097;DHT22;7125;48.106;11.544;2022-12-18T03:03:21;-4.00;99.90
14097;DHT22;7125;48.106;11.544;2022-12-18T03:05:52;-3.90;99.90
14097;DHT22;7125;48.106;11.544;2022-12-18T03:08:22;-3.90;99.90
14097;DHT22;7125;48.106;11.544;2022-12-18T03:10:55;-3.90;99.90
14097;DHT22;7125;48.106;11.544;2022-12-18T03:13:31;-3.80;99.90
14097;DHT22;7125;48.106;11.544;2022-12-18T03:16:00;-3.80;99.90
14097;DHT22;7125;48.106;11.544;2022-12-18T03:18:31;-3.80;99.90
14097;DHT22;7125;48.106;11.544;2022-12-18T03:21:02;-3.80;99.90
14097;DHT22;7125;48.106;11.544;2022-12-18T03:23:36;-3.80;99.90
14097;DHT22;7125;48.106;11.544;2022-12-18T03:26:12;-3.80;99.90
14097;DHT22;7125;48.106;11.544;2022-12-18T03:28:45;-3.80;99.90
14097;DHT22;7125;48.106;11.544;2022-12-18T03:31:14;-3.80;99.90
14097;DHT22;7125;48.106;11.544;2022-12-18T03:33:44;-3.80;99.90
14097;DHT22;7125;48.106;11.544;2022-12-18T03:36:14;-3.80;99.90
14097;DHT22;7125;48.106;11.544;2022-12-18T03:38:41;-3.80;99.90
14097;DHT22;7125;48.106;11.544;2022-12-18T03:41:15;-3.80;99.90
14097;DHT22;7125;48.106;11.544;2022-12-18T03:44:08;-3.80;99.90
14097;DHT22;7125;48.106;11.544;2022-12-18T03:46:47;-3.70;99.90
14097;DHT22;7125;48.106;11.544;2022-12-18T03:49:23;-3.70;99.90
14097;DHT22;7125;48.106;11.544;2022-12-18T03:51:59;-3.80;99.90
14097;DHT22;7125;48.106;11.544;2022-12-18T03:54:28;-3.80;99.90
14097;DHT22;7125;48.106;11.544;2022-12-18T03:57:06;-3.80;99.90
14097;DHT22;7125;48.106;11.544;2022-12-18T03:59:37;-3.80;99.90
14097;DHT22;7125;48.106;11.544;2022-12-18T04:02:07;-3.80;99.90
14097;DHT22;7125;48.106;11.544;2022-12-18T04:04:38;-3.80;99.90
14097;DHT22;7125;48.106;11.544;2022-12-18T04:07:06;-3.80;99.90
14097;DHT22;7125;48.106;11.544;2022-12-18T04:09:39;-3.80;99.90
14097;DHT22;7125;48.106;11.544;2022-12-18T04:12:06;-3.80;99.90
14097;DHT22;7125;48.106;11.544;2022-12-18T04:14:36;-3.80;99.90
14097;DHT22;7125;48.106;11.544;2022-12-18T04:17:07;-3.80;99.90
14097;DHT22;7125;48.106;11.544;2022-12-18T04:19:34;-3.80;99.90
14097;DHT22;7125;48.106;11.544;2022-12-18T04:22:02;-3.80;99.90
14097;DHT22;7125;48.106;11.544;2022-12-18T04:24:36;-3.80;99.90
14097;DHT22;7125;48.106;11.544;2022-12-18T04:27:09;-3.80;99.90
14097;DHT22;7125;48.106;11.544;2022-12-18T04:29:45;-3.80;99.90
14097;DHT22;7125;48.106;11.544;2022-12-18T04:32:12;-3.80;99.90
14097;DHT22;7125;48.106;11.544;2022-12-18T04:34:41;-3.80;99.90
14097;DHT22;7125;48.106;11.544;2022-12-18T04:37:08;-3.80;99.90
14097;DHT22;7125;48.106;11.544;2022-12-18T04:39:37;-3.80;99.90
14097;DHT22;7125;48.106;11.544;2022-12-18T04:42:09;-3.80;99.90
14097;DHT22;7125;48.106;11.544;2022-12-18T04:44:36;-3.80;99.90
14097;DHT22;7125;48.106;11.544;2022-12-18T04:47:05;-3.80;99.90
14097;DHT22;7125;48.106;11.544;2022-12-18T04:49:33;-3.80;99.90
14097;DHT22;7125;48.106;11.544;2022-12-18T04:52:00;-3.80;99.90
14097;DHT22;7125;48.106;11.544;2022-12-18T04:54:27;-3.80;99.90
14097;DHT22;7125;48.106;11.544;2022-12-18T04:56:55;-3.80;99.90
14097;DHT22;7125;48.106;11.544;2022-12-18T04:59:21;-3.80;99.90
14097;DHT22;7125;48.106;11.544;2022-12-18T05:01:51;-3.80;99.90
14097;DHT22;7125;48.106;11.544;2022-12-18T05:04:21;-3.80;99.90
14097;DHT22;7125;48.106;11.544;2022-12-18T05:06:48;-3.80;99.90
14097;DHT22;7125;48.106;11.544;2022-12-18T05:09:15;-3.80;99.90
14097;DHT22;7125;48.106;11.544;2022-12-18T05:11:41;-3.70;99.90
14097;DHT22;7125;48.106;11.544;2022-12-18T05:14:08;-3.70;99.90
14097;DHT22;7125;48.106;11.544;2022-12-18T05:16:35;-3.80;99.90
14097;DHT22;7125;48.106;11.544;2022-12-18T05:19:02;-3.70;99.90
14097;DHT22;7125;48.106;11.544;2022-12-18T05:21:30;-3.70;99.90
14097;DHT22;7125;48.106;11.544;2022-12-18T05:23:57;-3.70;99.90
14097;DHT22;7125;48.106;11.544;2022-12-18T05:26:24;-3.80;99.90
14097;DHT22;7125;48.106;11.544;2022-12-18T05:28:51;-3.80;99.90
14097;DHT22;7125;48.106;11.544;2022-12-18T05:31:18;-3.80;99.90
14097;DHT22;7125;48.106;11.544;2022-12-18T05:33:44;-3.80;99.90
14097;DHT22;7125;48.106;11.544;2022-12-18T05:36:11;-3.80;99.90
14097;DHT22;7125;48.106;11.544;2022-12-18T05:38:40;-3.90;99.90
14097;DHT22;7125;48.106;11.544;2022-12-18T05:41:07;-3.80;99.90
14097;DHT22;7125;48.106;11.544;2022-12-18T05:43:35;-3.80;99.90
14097;DHT22;7125;48.106;11.544;2022-12-18T05:46:06;-3.80;99.90
14097;DHT22;7125;48.106;11.544;2022-12-18T05:48:33;-3.90;99.90
14097;DHT22;7125;48.106;11.544;2022-12-18T05:51:04;-3.80;99.90
14097;DHT22;7125;48.106;11.544;2022-12-18T05:53:33;-3.90;99.90
14097;DHT22;7125;48.106;11.544;2022-12-18T05:56:02;-3.90;99.90
14097;DHT22;7125;48.106;11.544;2022-12-18T05:58:29;-3.90;99.90
14097;DHT22;7125;48.106;11.544;2022-12-18T06:00:58;-4.00;99.90
14097;DHT22;7125;48.106;11.544;2022-12-18T06:03:31;-4.00;99.90
14097;DHT22;7125;48.106;11.544;2022-12-18T06:05:58;-4.00;99.90
14097;DHT22;7125;48.106;11.544;2022-12-18T06:08:25;-4.00;99.90
14097;DHT22;7125;48.106;11.544;2022-12-18T06:10:52;-3.90;99.90
14097;DHT22;7125;48.106;11.544;2022-12-18T06:13:21;-3.90;99.90
14097;DHT22;7125;48.106;11.544;2022-12-18T06:15:48;-3.90;99.90
14097;DHT22;7125;48.106;11.544;2022-12-18T06:18:15;-3.90;99.90
14097;DHT22;7125;48.106;11.544;2022-12-18T06:20:42;-3.90;99.90
14097;DHT22;7125;48.106;11.544;2022-12-18T06:23:09;-4.00;99.90
14097;DHT22;7125;48.106;11.544;2022-12-18T06:25:37;-4.00;99.90
14097;DHT22;7125;48.106;11.544;2022-12-18T06:28:04;-4.00;99.90
14097;DHT22;7125;48.106;11.544;2022-12-18T06:30:33;-4.00;99.90
14097;DHT22;7125;48.106;11.544;2022-12-18T06:33:00;-3.90;99.90
14097;DHT22;7125;48.106;11.544;2022-12-18T06:35:27;-3.90;99.90
14097;DHT22;7125;48.106;11.544;2022-12-18T06:37:53;-3.90;99.90
14097;DHT22;7125;48.106;11.544;2022-12-18T06:40:20;-3.90;99.90
14097;DHT22;7125;48.106;11.544;2022-12-18T06:42:47;-3.90;99.90
14097;DHT22;7125;48.106;11.544;2022-12-18T06:45:14;-4.00;99.90
14097;DHT22;7125;48.106;11.544;2022-12-18T06:47:42;-4.00;99.90
14097;DHT22;7125;48.106;11.544;2022-12-18T06:50:09;-4.00;99.90
14097;DHT22;7125;48.106;11.544;2022-12-18T06:52:36;-4.00;99.90
14097;DHT22;7125;48.106;11.544;2022-12-18T06:55:05;-4.00;99.90
14097;DHT22;7125;48.106;11.544;2022-12-18T06:57:32;-4.00;99.90
14097;DHT22;7125;48.106;11.544;2022-12-18T06:59:59;-4.00;99.90
14097;DHT22;7125;48.106;11.544;2022-12-18T07:02:26;-4.00;99.90
14097;DHT22;7125;48.106;11.544;2022-12-18T07:04:54;-4.00;99.90
14097;DHT22;7125;48.106;11.544;2022-12-18T07:07:21;-4.10;99.90
14097;DHT22;7125;48.106;11.544;2022-12-18T07:09:49;-4.00;99.90
14097;DHT22;7125;48.106;11.544;2022-12-18T07:12:17;-4.10;99.90
14097;DHT22;7125;48.106;11.544;2022-12-18T07:14:44;-4.00;99.90
14097;DHT22;7125;48.106;11.544;2022-12-18T07:17:11;-4.10;99.90
14097;DHT22;7125;48.106;11.544;2022-12-18T07:19:38;-4.00;99.90
14097;DHT22;7125;48.106;11.544;2022-12-18T07:22:06;-4.00;99.90
14097;DHT22;7125;48.106;11.544;2022-12-18T07:24:36;-4.00;99.90
14097;DHT22;7125;48.106;11.544;2022-12-18T07:27:03;-4.00;99.90
14097;DHT22;7125;48.106;11.544;2022-12-18T07:29:30;-4.00;99.90
14097;DHT22;7125;48.106;11.544;2022-12-18T07:31:56;-4.10;99.90
14097;DHT22;7125;48.106;11.544;2022-12-18T07:34:23;-4.00;99.90
14097;DHT22;7125;48.106;11.544;2022-12-18T07:36:50;-4.00;99.90
14097;DHT22;7125;48.106;11.544;2022-12-18T07:39:18;-4.00;99.90
14097;DHT22;7125;48.106;11.544;2022-12-18T07:41:45;-4.00;99.90
14097;DHT22;7125;48.106;11.544;2022-12-18T07:44:32;-3.90;99.90
14097;DHT22;7125;48.106;11.544;2022-12-18T07:46:59;-3.90;99.90
14097;DHT22;7125;48.106;11.544;2022-12-18T07:49:26;-3.90;99.90
14097;DHT22;7125;48.106;11.544;2022-12-18T07:51:54;-3.90;99.90
14097;DHT22;7125;48.106;11.544;2022-12-18T07:54:23;-3.90;99.90
14097;DHT22;7125;48.106;11.544;2022-12-18T07:56:50;-3.90;99.90
14097;DHT22;7125;48.106;11.544;2022-12-18T07:59:17;-4.00;99.90
14097;DHT22;7125;48.106;11.544;2022-12-18T08:01:44;-4.00;99.90
14097;DHT22;7125;48.106;11.544;2022-12-18T08:04:11;-4.00;99.90
14097;DHT22;7125;48.106;11.544;2022-12-18T08:06:38;-4.00;99.90
14097;DHT22;7125;48.106;11.544;2022-12-18T08:09:05;-3.90;99.90
14097;DHT22;7125;48.106;11.544;2022-12-18T08:11:35;-3.80;99.90
14097;DHT22;7125;48.106;11.544;2022-12-18T08:14:01;-3.90;99.90
14097;DHT22;7125;48.106;11.544;2022-12-18T08:16:29;-3.80;99.90
14097;DHT22;7125;48.106;11.544;2022-12-18T08:18:56;-3.80;99.90
14097;DHT22;7125;48.106;11.544;2022-12-18T08:21:25;-3.80;99.90
14097;DHT22;7125;48.106;11.544;2022-12-18T08:23:54;-3.80;99.90
14097;DHT22;7125;48.106;11.544;2022-12-18T08:26:22;-3.70;99.90
14097;DHT22;7125;48.106;11.544;2022-12-18T08:28:51;-3.60;99.90
14097;DHT22;7125;48.106;11.544;2022-12-18T08:31:19;-3.60;99.90
14097;DHT22;7125;48.106;11.544;2022-12-18T08:33:49;-3.70;99.90
14097;DHT22;7125;48.106;11.544;2022-12-18T08:36:16;-3.70;99.90
14097;DHT22;7125;48.106;11.544;2022-12-18T08:38:43;-3.70;99.90
14097;DHT22;7125;48.106;11.544;2022-12-18T08:41:11;-3.70;99.90
14097;DHT22;7125;48.106;11.544;2022-12-18T08:43:39;-3.70;99.90
14097;DHT22;7125;48.106;11.544;2022-12-18T08:46:27;-3.70;99.90
14097;DHT22;7125;48.106;11.544;2022-12-18T08:48:54;-3.70;99.90
14097;DHT22;7125;48.106;11.544;2022-12-18T08:51:22;-3.60;99.90
14097;DHT22;7125;48.106;11.544;2022-12-18T08:53:49;-3.60;99.90
14097;DHT22;7125;48.106;11.544;2022-12-18T08:56:16;-3.60;99.90
14097;DHT22;7125;48.106;11.544;2022-12-18T08:58:43;-3.60;99.90
14097;DHT22;7125;48.106;11.544;2022-12-18T09:01:11;-3.60;99.90
14097;DHT22;7125;48.106;11.544;2022-12-18T09:03:40;-3.60;99.90
14097;DHT22;7125;48.106;11.544;2022-12-18T09:06:07;-3.60;99.90
14097;DHT22;7125;48.106;11.544;2022-12-18T09:08:34;-3.60;99.90
14097;DHT22;7125;48.106;11.544;2022-12-18T09:11:02;-3.60;99.90
14097;DHT22;7125;48.106;11.544;2022-12-18T09:13:29;-3.60;99.90
14097;DHT22;7125;48.106;11.544;2022-12-18T09:15:56;-3.70;99.90
14097;DHT22;7125;48.106;11.544;2022-12-18T09:18:24;-3.70;99.90
14097;DHT22;7125;48.106;11.544;2022-12-18T09:20:52;-3.70;99.90
14097;DHT22;7125;48.106;11.544;2022-12-18T09:23:20;-3.70;99.90
14097;DHT22;7125;48.106;11.544;2022-12-18T09:25:47;-3.70;99.90
14097;DHT22;7125;48.106;11.544;2022-12-18T09:28:17;-3.60;99.90
14097;DHT22;7125;48.106;11.544;2022-12-18T09:30:46;-3.60;99.90
14097;DHT22;7125;48.106;11.544;2022-12-18T09:33:14;-3.50;99.90
14097;DHT22;7125;48.106;11.544;2022-12-18T09:35:43;-3.40;99.90
14097;DHT22;7125;48.106;11.544;2022-12-18T09:38:12;-3.40;99.90
14097;DHT22;7125;48.106;11.544;2022-12-18T09:40:43;-3.40;99.90
14097;DHT22;7125;48.106;11.544;2022-12-18T09:43:16;-3.30;99.90
14097;DHT22;7125;48.106;11.544;2022-12-18T09:45:46;-3.20;99.90
14097;DHT22;7125;48.106;11.544;2022-12-18T09:48:19;-3.20;99.90
14097;DHT22;7125;48.106;11.544;2022-12-18T09:50:48;-3.30;99.90
14097;DHT22;7125;48.106;11.544;2022-12-18T09:53:21;-3.30;99.90
14097;DHT22;7125;48.106;11.544;2022-12-18T09:55:51;-3.40;99.90
14097;DHT22;7125;48.106;11.544;2022-12-18T09:58:24;-3.40;99.90
14097;DHT22;7125;48.106;11.544;2022-12-18T10:00:52;-3.30;99.90
14097;DHT22;7125;48.106;11.544;2022-12-18T10:03:20;-3.30;99.90
14097;DHT22;7125;48.106;11.544;2022-12-18T10:05:57;-3.30;99.90
14097;DHT22;7125;48.106;11.544;2022-12-18T10:08:36;-3.30;99.90
14097;DHT22;7125;48.106;11.544;2022-12-18T10:11:21;-3.30;99.90
14097;DHT22;7125;48.106;11.544;2022-12-18T10:13:52;-3.30;99.90
14097;DHT22;7125;48.106;11.544;2022-12-18T10:16:27;-3.20;99.90
14097;DHT22;7125;48.106;11.544;2022-12-18T10:19:16;-3.20;99.90
14097;DHT22;7125;48.106;11.544;2022-12-18T10:21:49;-3.20;99.90
14097;DHT22;7125;48.106;11.544;2022-12-18T10:24:26;-3.20;99.90
14097;DHT22;7125;48.106;11.544;2022-12-18T10:26:56;-3.10;99.90
14097;DHT22;7125;48.106;11.544;2022-12-18T10:29:27;-3.20;99.90
14097;DHT22;7125;48.106;11.544;2022-12-18T10:31:54;-3.20;99.90
14097;DHT22;7125;48.106;11.544;2022-12-18T10:34:21;-3.30;99.90
14097;DHT22;7125;48.106;11.544;2022-12-18T10:36:48;-3.30;99.90
14097;DHT22;7125;48.106;11.544;2022-12-18T10:39:16;-3.30;99.90
14097;DHT22;7125;48.106;11.544;2022-12-18T10:41:45;-3.30;99.90
14097;DHT22;7125;48.106;11.544;2022-12-18T10:44:17;-3.30;99.90
14097;DHT22;7125;48.106;11.544;2022-12-18T10:46:45;-3.30;99.90
14097;DHT22;7125;48.106;11.544;2022-12-18T10:49:21;-3.20;99.90
14097;DHT22;7125;48.106;11.544;2022-12-18T10:51:49;-3.20;99.90
14097;DHT22;7125;48.106;11.544;2022-12-18T10:54:17;-3.10;99.90
14097;DHT22;7125;48.106;11.544;2022-12-18T10:56:46;-3.10;99.90
14097;DHT22;7125;48.106;11.544;2022-12-18T10:59:15;-3.10;99.90
14097;DHT22;7125;48.106;11.544;2022-12-18T11:01:49;-3.10;99.90
14097;DHT22;7125;48.106;11.544;2022-12-18T11:04:19;-3.00;99.90
14097;DHT22;7125;48.106;11.544;2022-12-18T11:06:55;-3.00;99.90
14097;DHT22;7125;48.106;11.544;2022-12-18T11:09:23;-3.00;99.90
14097;DHT22;7125;48.106;11.544;2022-12-18T11:11:53;-2.90;99.90
14097;DHT22;7125;48.106;11.544;2022-12-18T11:14:23;-2.90;99.90
14097;DHT22;7125;48.106;11.544;2022-12-18T11:16:51;-3.00;99.90
14097;DHT22;7125;48.106;11.544;2022-12-18T11:19:29;-2.90;99.90
14097;DHT22;7125;48.106;11.544;2022-12-18T11:21:57;-2.90;99.90
14097;DHT22;7125;48.106;11.544;2022-12-18T11:24:27;-2.90;99.90
14097;DHT22;7125;48.106;11.544;2022-12-18T11:26:58;-3.00;99.90
14097;DHT22;7125;48.106;11.544;2022-12-18T11:29:31;-3.00;99.90
14097;DHT22;7125;48.106;11.544;2022-12-18T11:32:33;-3.10;99.90
14097;DHT22;7125;48.106;11.544;2022-12-18T11:35:08;-3.10;99.90
14097;DHT22;7125;48.106;11.544;2022-12-18T11:37:39;-3.00;99.90
14097;DHT22;7125;48.106;11.544;2022-12-18T11:40:11;-3.00;99.90
14097;DHT22;7125;48.106;11.544;2022-12-18T11:42:45;-3.00;99.90
14097;DHT22;7125;48.106;11.544;2022-12-18T11:45:26;-3.00;99.90
14097;DHT22;7125;48.106;11.544;2022-12-18T11:47:58;-3.10;99.90
14097;DHT22;7125;48.106;11.544;2022-12-18T11:50:32;-3.10;99.90
14097;DHT22;7125;48.106;11.544;2022-12-18T11:53:00;-3.10;99.90
14097;DHT22;7125;48.106;11.544;2022-12-18T11:55:40;-3.20;99.90
14097;DHT22;7125;48.106;11.544;2022-12-18T11:58:14;-3.30;99.90
14097;DHT22;7125;48.106;11.544;2022-12-18T12:00:47;-3.20;99.90
14097;DHT22;7125;48.106;11.544;2022-12-18T12:03:47;-3.30;99.90
14097;DHT22;7125;48.106;11.544;2022-12-18T12:06:21;-3.30;99.90
14097;DHT22;7125;48.106;11.544;2022-12-18T12:09:02;-3.30;99.90
14097;DHT22;7125;48.106;11.544;2022-12-18T12:11:39;-3.30;99.90
14097;DHT22;7125;48.106;11.544;2022-12-18T12:14:24;-3.30;99.90
14097;DHT22;7125;48.106;11.544;2022-12-18T12:16:58;-3.30;99.90
14097;DHT22;7125;48.106;11.544;2022-12-18T12:19:36;-3.30;99.90
14097;DHT22;7125;48.106;11.544;2022-12-18T12:22:11;-3.30;99.90
14097;DHT22;7125;48.106;11.544;2022-12-18T12:24:50;-3.30;99.90
14097;DHT22;7125;48.106;11.544;2022-12-18T12:27:26;-3.30;99.90
14097;DHT22;7125;48.106;11.544;2022-12-18T12:30:04;-3.30;99.90
14097;DHT22;7125;48.106;11.544;2022-12-18T12:32:43;-3.30;99.90
14097;DHT22;7125;48.106;11.544;2022-12-18T12:35:22;-3.20;99.90
14097;DHT22;7125;48.106;11.544;2022-12-18T12:38:00;-3.30;99.90
14097;DHT22;7125;48.106;11.544;2022-12-18T12:40:33;-3.20;99.90
14097;DHT22;7125;48.106;11.544;2022-12-18T12:43:05;-3.30;99.90
14097;DHT22;7125;48.106;11.544;2022-12-18T12:45:44;-3.30;99.90
14097;DHT22;7125;48.106;11.544;2022-12-18T12:48:20;-3.20;99.90
14097;DHT22;7125;48.106;11.544;2022-12-18T12:50:49;-3.20;99.90
14097;DHT22;7125;48.106;11.544;2022-12-18T12:53:23;-3.10;99.90
14097;DHT22;7125;48.106;11.544;2022-12-18T12:55:54;-3.10;99.90
14097;DHT22;7125;48.106;11.544;2022-12-18T12:58:29;-3.00;99.90
14097;DHT22;7125;48.106;11.544;2022-12-18T13:01:08;-3.00;99.90
14097;DHT22;7125;48.106;11.544;2022-12-18T13:03:45;-3.00;99.90
14097;DHT22;7125;48.106;11.544;2022-12-18T13:06:18;-2.90;99.90
14097;DHT22;7125;48.106;11.544;2022-12-18T13:08:54;-3.00;99.90
14097;DHT22;7125;48.106;11.544;2022-12-18T13:11:34;-2.90;99.90
14097;DHT22;7125;48.106;11.544;2022-12-18T13:14:26;-2.90;99.90
14097;DHT22;7125;48.106;11.544;2022-12-18T13:17:27;-3.00;99.90
14097;DHT22;7125;48.106;11.544;2022-12-18T13:20:10;-3.00;99.90
14097;DHT22;7125;48.106;11.544;2022-12-18T13:22:39;-3.00;99.90
14097;DHT22;7125;48.106;11.544;2022-12-18T13:25:29;-3.00;99.90
14097;DHT22;7125;48.106;11.544;2022-12-18T13:28:01;-3.00;99.90
14097;DHT22;7125;48.106;11.544;2022-12-18T13:30:45;-3.00;99.90
14097;DHT22;7125;48.106;11.544;2022-12-18T13:36:16;-3.00;99.90
14097;DHT22;7125;48.106;11.544;2022-12-18T13:38:44;-3.00;99.90
14097;DHT22;7125;48.106;11.544;2022-12-18T13:41:25;-3.10;99.90
14097;DHT22;7125;48.106;11.544;2022-12-18T13:43:54;-3.10;99.90
14097;DHT22;7125;48.106;11.544;2022-12-18T13:46:27;-3.20;99.90
14097;DHT22;7125;48.106;11.544;2022-12-18T13:48:58;-3.30;99.90
14097;DHT22;7125;48.106;11.544;2022-12-18T13:51:28;-3.30;99.90
14097;DHT22;7125;48.106;11.544;2022-12-18T13:54:01;-3.30;99.90
14097;DHT22;7125;48.106;11.544;2022-12-18T13:56:30;-3.40;99.90
14097;DHT22;7125;48.106;11.544;2022-12-18T13:59:08;-3.50;99.90
14097;DHT22;7125;48.106;11.544;2022-12-18T14:01:42;-3.50;99.90
14097;DHT22;7125;48.106;11.544;2022-12-18T14:04:10;-3.50;99.90
14097;DHT22;7125;48.106;11.544;2022-12-18T14:06:39;-3.50;99.90
14097;DHT22;7125;48.106;11.544;2022-12-18T14:09:14;-3.60;99.90
14097;DHT22;7125;48.106;11.544;2022-12-18T14:11:46;-3.50;99.90
14097;DHT22;7125;48.106;11.544;2022-12-18T14:14:15;-3.60;99.90
14097;DHT22;7125;48.106;11.544;2022-12-18T14:16:42;-3.70;99.90
14097;DHT22;7125;48.106;11.544;2022-12-18T14:19:12;-3.70;99.90
14097;DHT22;7125;48.106;11.544;2022-12-18T14:21:45;-3.80;99.90
14097;DHT22;7125;48.106;11.544;2022-12-18T14:24:15;-3.80;99.90
14097;DHT22;7125;48.106;11.544;2022-12-18T14:26:43;-3.80;99.90
14097;DHT22;7125;48.106;11.544;2022-12-18T14:29:24;-3.90;99.90
14097;DHT22;7125;48.106;11.544;2022-12-18T14:32:06;-3.90;99.90
14097;DHT22;7125;48.106;11.544;2022-12-18T14:34:33;-3.90;99.90
14097;DHT22;7125;48.106;11.544;2022-12-18T14:37:01;-3.90;99.90
14097;DHT22;7125;48.106;11.544;2022-12-18T14:39:28;-3.90;99.90
14097;DHT22;7125;48.106;11.544;2022-12-18T14:41:55;-3.90;99.90
14097;DHT22;7125;48.106;11.544;2022-12-18T14:44:22;-3.90;99.90
14097;DHT22;7125;48.106;11.544;2022-12-18T14:46:50;-4.00;99.90
14097;DHT22;7125;48.106;11.544;2022-12-18T14:49:24;-4.00;99.90
14097;DHT22;7125;48.106;11.544;2022-12-18T14:51:55;-4.00;99.90
14097;DHT22;7125;48.106;11.544;2022-12-18T14:54:25;-4.00;99.90
14097;DHT22;7125;48.106;11.544;2022-12-18T14:56:56;-4.00;99.90
14097;DHT22;7125;48.106;11.544;2022-12-18T14:59:26;-4.00;99.90
14097;DHT22;7125;48.106;11.544;2022-12-18T15:02:00;-4.00;99.90
14097;DHT22;7125;48.106;11.544;2022-12-18T15:04:30;-4.00;99.90
14097;DHT22;7125;48.106;11.544;2022-12-18T15:07:14;-4.00;99.90
14097;DHT22;7125;48.106;11.544;2022-12-18T15:10:00;-4.00;99.90
14097;DHT22;7125;48.106;11.544;2022-12-18T15:12:33;-4.10;99.90
14097;DHT22;7125;48.106;11.544;2022-12-18T15:15:01;-4.10;99.90
14097;DHT22;7125;48.106;11.544;2022-12-18T15:17:28;-4.10;99.90
14097;DHT22;7125;48.106;11.544;2022-12-18T15:20:00;-4.10;99.90
14097;DHT22;7125;48.106;11.544;2022-12-18T15:22:29;-4.10;99.90
14097;DHT22;7125;48.106;11.544;2022-12-18T15:24:58;-4.10;99.90
14097;DHT22;7125;48.106;11.544;2022-12-18T15:27:28;-4.10;99.90
14097;DHT22;7125;48.106;11.544;2022-12-18T15:30:18;-4.10;99.90
14097;DHT22;7125;48.106;11.544;2022-12-18T15:32:46;-4.10;99.90
14097;DHT22;7125;48.106;11.544;2022-12-18T15:35:18;-4.10;99.90
14097;DHT22;7125;48.106;11.544;2022-12-18T15:37:45;-4.10;99.90
14097;DHT22;7125;48.106;11.544;2022-12-18T15:40:15;-4.10;99.90
14097;DHT22;7125;48.106;11.544;2022-12-18T15:42:43;-4.10;99.90
14097;DHT22;7125;48.106;11.544;2022-12-18T15:45:28;-4.10;99.90
14097;DHT22;7125;48.106;11.544;2022-12-18T15:47:57;-4.10;99.90
14097;DHT22;7125;48.106;11.544;2022-12-18T15:50:24;-4.10;99.90
14097;DHT22;7125;48.106;11.544;2022-12-18T15:52:52;-4.10;99.90
14097;DHT22;7125;48.106;11.544;2022-12-18T15:55:23;-4.10;99.90
14097;DHT22;7125;48.106;11.544;2022-12-18T15:58:09;-4.10;99.90